createdAt,value
2023-05-21T00:00:26.926Z,99223.13
2023-05-21T00:05:28.874Z,99217.27
2023-05-21T00:10:30.601Z,99209.50
2023-05-21T00:15:32.363Z,99208.77
2023-05-21T00:20:34.136Z,99211.73
2023-05-21T00:25:36.041Z,99212.27
2023-05-21T00:30:38.196Z,99209.67
2023-05-21T00:35:40.083Z,99202.05
2023-05-21T00:40:41.859Z,99199.46
2023-05-21T00:45:47.517Z,99201.35
2023-05-21T00:50:50.208Z,99202.21
2023-05-21T00:55:52.069Z,99198.60
2023-05-21T01:00:57.063Z,99194.61
2023-05-21T01:06:01.504Z,99190.81
2023-05-21T01:11:05.194Z,99183.55
2023-05-21T01:16:08.990Z,99177.69
2023-05-21T01:21:11.195Z,99174.76
2023-05-21T01:26:13.132Z,99173.34
2023-05-21T01:31:26.419Z,99169.53
2023-05-21T01:36:34.789Z,99166.40
2023-05-21T01:41:41.170Z,99159.99
2023-05-21T01:46:42.893Z,99153.42
2023-05-21T01:51:45.118Z,99157.20
2023-05-21T01:56:48.044Z,99146.98
2023-05-21T02:01:49.983Z,99142.98
2023-05-21T02:06:52.038Z,99146.05
2023-05-21T02:11:54.324Z,99144.16
2023-05-21T02:16:56.848Z,99139.67
2023-05-21T02:21:58.532Z,99137.61
2023-05-21T02:27:00.402Z,99135.21
2023-05-21T02:32:02.827Z,99132.10
2023-05-21T02:37:04.674Z,99135.54
2023-05-21T02:42:06.599Z,99132.77
2023-05-21T02:47:10.413Z,99136.38
2023-05-21T02:52:12.966Z,99129.30
2023-05-21T02:57:15.263Z,99121.89
2023-05-21T03:02:17.204Z,99124.83
2023-05-21T03:07:20.122Z,99120.17
2023-05-21T03:12:22.203Z,99116.22
2023-05-21T03:17:23.992Z,99114.52
2023-05-21T03:22:25.895Z,99116.27
2023-05-21T03:27:28.010Z,99122.65
2023-05-21T03:32:30.280Z,99119.40
2023-05-21T03:37:32.727Z,99116.98
2023-05-21T03:42:35.269Z,99116.65
2023-05-21T03:47:37.338Z,99120.80
2023-05-21T03:52:41.321Z,99114.63
2023-05-21T03:57:43.804Z,99116.52
2023-05-21T04:07:15.329Z,99117.92
2023-05-21T04:12:19.184Z,99112.30
2023-05-21T04:17:22.391Z,99116.23
2023-05-21T04:22:26.835Z,99119.10
2023-05-21T04:27:28.694Z,99123.27
2023-05-21T04:32:33.546Z,99121.94
2023-05-21T04:37:36.383Z,99123.48
2023-05-21T04:42:39.280Z,99123.34
2023-05-21T04:47:43.389Z,99124.23
2023-05-21T04:52:45.739Z,99132.70
2023-05-21T04:57:47.663Z,99132.77
2023-05-21T05:02:49.729Z,99137.23
2023-05-21T05:07:51.712Z,99138.41
2023-05-21T05:12:53.668Z,99132.98
2023-05-21T05:17:56.701Z,99135.01
2023-05-21T05:22:58.638Z,99137.58
2023-05-21T05:28:00.821Z,99140.02
2023-05-21T05:33:02.997Z,99138.22
2023-05-21T05:38:05.970Z,99136.70
2023-05-21T05:43:07.925Z,99139.23
2023-05-21T05:48:09.888Z,99137.51
2023-05-21T05:53:13.423Z,99133.03
2023-05-21T05:58:15.634Z,99135.17
2023-05-21T06:03:41.712Z,99140.42
2023-05-21T06:08:46.608Z,99132.70
2023-05-21T06:13:48.497Z,99131.60
2023-05-21T06:18:51.492Z,99132.70
2023-05-21T06:23:53.467Z,99126.80
2023-05-21T06:28:56.675Z,99121.79
2023-05-21T06:34:00.008Z,99119.58
2023-05-21T06:39:03.417Z,99112.65
2023-05-21T06:44:06.128Z,99110.20
2023-05-21T06:49:35.039Z,99108.52
2023-05-21T06:54:37.121Z,99108.65
2023-05-21T06:59:39.369Z,99104.45
2023-05-21T07:04:41.228Z,99098.95
2023-05-21T07:09:42.950Z,99091.27
2023-05-21T07:14:45.268Z,99089.10
2023-05-21T07:19:47.182Z,99086.05
2023-05-21T07:24:49.407Z,99087.30
2023-05-21T07:29:52.359Z,99082.25
2023-05-21T07:34:56.730Z,99084.50
2023-05-21T07:40:00.475Z,99081.92
2023-05-21T07:45:03.042Z,99086.89
2023-05-21T07:50:08.766Z,99083.14
2023-05-21T07:55:11.313Z,99079.58
2023-05-21T08:00:14.310Z,99067.16
2023-05-21T08:05:24.456Z,99068.14
2023-05-21T08:10:26.400Z,99069.84
2023-05-21T08:15:28.363Z,99072.98
2023-05-21T08:20:32.248Z,99064.66
2023-05-21T08:25:34.260Z,99065.64
2023-05-21T08:30:37.573Z,99060.08
2023-05-21T08:35:39.529Z,99062.98
2023-05-21T08:40:59.582Z,99060.21
2023-05-21T08:46:04.228Z,99053.73
2023-05-21T08:51:07.826Z,99047.73
2023-05-21T08:56:17.855Z,99046.27
2023-05-21T09:01:42.298Z,99043.86
2023-05-21T09:06:54.963Z,99038.39
2023-05-21T09:12:10.148Z,99038.21
2023-05-21T09:17:14.935Z,99037.38
2023-05-21T09:22:17.652Z,99037.01
2023-05-21T09:27:19.507Z,99033.38
2023-05-21T09:32:21.382Z,99028.76
2023-05-21T09:37:27.569Z,99025.66
2023-05-21T09:42:30.156Z,99026.74
2023-05-21T09:47:32.486Z,99015.27
2023-05-21T09:52:37.295Z,99018.02
2023-05-21T09:57:50.887Z,99015.31
2023-05-21T10:03:01.818Z,99016.19
2023-05-21T10:08:04.892Z,99013.50
2023-05-21T10:13:10.365Z,99011.91
2023-05-21T10:18:13.645Z,99010.89
2023-05-21T10:23:15.699Z,99007.65
2023-05-21T10:28:20.707Z,98999.52
2023-05-21T10:33:25.073Z,98994.95
2023-05-21T10:38:27.967Z,98990.49
2023-05-21T10:43:48.588Z,98981.04
2023-05-21T10:48:56.066Z,98981.41
2023-05-21T10:54:36.996Z,98975.16
2023-05-21T10:59:49.346Z,98977.55
2023-05-21T11:04:58.751Z,98974.67
2023-05-21T11:10:32.781Z,98970.42
2023-05-21T11:15:57.747Z,98972.52
2023-05-21T11:21:06.812Z,98969.79
2023-05-21T11:26:08.561Z,98968.70
2023-05-21T11:31:27.254Z,98967.08
2023-05-21T11:36:29.135Z,98965.39
2023-05-21T11:41:31.065Z,98959.05
2023-05-21T11:46:34.274Z,98957.23
2023-05-21T11:51:36.725Z,98952.73
2023-05-21T11:56:42.028Z,98954.76
2023-05-21T12:01:44.293Z,98951.21
2023-05-21T12:06:46.129Z,98948.59
2023-05-21T12:11:47.906Z,98947.96
2023-05-21T12:16:49.952Z,98943.57
2023-05-21T12:21:51.739Z,98934.13
2023-05-21T12:26:55.195Z,98939.73
2023-05-21T12:32:01.774Z,98938.45
2023-05-21T12:37:05.508Z,98937.94
2023-05-21T12:42:08.496Z,98934.34
2023-05-21T12:47:11.263Z,98940.52
2023-05-21T12:52:14.466Z,98931.26
2023-05-21T12:57:17.474Z,98921.95
2023-05-21T13:02:22.153Z,98924.23
2023-05-21T13:07:26.331Z,98926.73
2023-05-21T13:12:30.028Z,98916.70
2023-05-21T13:17:32.315Z,98913.56
2023-05-21T13:22:35.734Z,98912.07
2023-05-21T13:27:39.696Z,98908.20
2023-05-21T13:32:42.681Z,98912.17
2023-05-21T13:37:45.071Z,98908.61
2023-05-21T13:42:48.824Z,98905.02
2023-05-21T13:47:50.789Z,98902.81
2023-05-21T13:52:52.489Z,98894.17
2023-05-21T13:57:54.379Z,98890.95
2023-05-21T14:02:56.795Z,98892.86
2023-05-21T14:07:58.950Z,98890.44
2023-05-21T14:13:11.228Z,98880.92
2023-05-21T14:18:17.765Z,98885.66
2023-05-21T14:23:19.576Z,98882.89
2023-05-21T14:28:21.859Z,98884.05
2023-05-21T14:33:23.681Z,98887.59
2023-05-21T14:38:25.995Z,98890.34
2023-05-21T14:43:27.754Z,98889.48
2023-05-21T14:48:29.514Z,98886.81
2023-05-21T14:53:31.323Z,98892.85
2023-05-21T14:58:33.182Z,98893.66
2023-05-21T15:03:35.046Z,98894.30
2023-05-21T15:08:36.958Z,98896.87
2023-05-21T15:13:39.568Z,98900.06
2023-05-21T15:18:41.357Z,98902.86
2023-05-21T15:23:43.065Z,98901.39
2023-05-21T15:28:44.797Z,98902.91
2023-05-21T15:33:46.566Z,98895.45
2023-05-21T15:38:48.633Z,98903.00
2023-05-21T15:43:50.394Z,98902.58
2023-05-21T15:48:52.152Z,98900.83
2023-05-21T15:53:54.512Z,98904.38
2023-05-21T15:58:58.650Z,98901.18
2023-05-21T16:04:03.372Z,98902.02
2023-05-21T16:09:05.563Z,98899.90
2023-05-21T16:14:07.408Z,98901.77
2023-05-21T16:19:09.169Z,98906.55
2023-05-21T16:24:11.023Z,98909.36
2023-05-21T16:29:14.851Z,98908.18
2023-05-21T16:34:16.611Z,98907.95
2023-05-21T16:39:18.442Z,98910.05
2023-05-21T16:44:20.424Z,98909.77
2023-05-21T16:49:22.180Z,98904.70
2023-05-21T16:54:23.913Z,98913.30
2023-05-21T16:59:25.676Z,98909.48
2023-05-21T17:04:27.424Z,98918.64
2023-05-21T17:09:29.397Z,98917.85
2023-05-21T17:14:34.178Z,98920.73
2023-05-21T17:19:37.557Z,98919.52
2023-05-21T17:24:39.505Z,98925.98
2023-05-21T17:29:41.492Z,98925.66
2023-05-21T17:34:44.051Z,98927.89
2023-05-21T17:39:46.050Z,98934.61
2023-05-21T17:44:47.785Z,98937.74
2023-05-21T17:49:49.512Z,98940.55
2023-05-21T17:54:51.491Z,98943.52
2023-05-21T17:59:53.276Z,98944.04
2023-05-21T18:04:55.136Z,98949.20
2023-05-21T18:09:57.048Z,98947.59
2023-05-21T18:14:58.869Z,98938.79
2023-05-21T18:20:00.648Z,98940.11
2023-05-21T18:25:03.548Z,98946.27
2023-05-21T18:30:08.585Z,98955.27
2023-05-21T18:35:12.005Z,98957.80
2023-05-21T18:40:16.980Z,98958.67
2023-05-21T18:45:18.757Z,98956.75
2023-05-21T18:50:20.605Z,98954.42
2023-05-21T18:55:22.621Z,98958.66
2023-05-21T19:00:24.348Z,98968.42
2023-05-21T19:05:26.389Z,98977.79
2023-05-21T19:10:30.697Z,98982.09
2023-05-21T19:15:33.021Z,98980.58
2023-05-21T19:20:36.984Z,98982.20
2023-05-21T19:25:39.254Z,98986.42
2023-05-21T19:30:41.097Z,98989.18
2023-05-21T19:35:43.489Z,98988.42
2023-05-21T19:40:45.512Z,98986.47
2023-05-21T19:45:47.426Z,98990.59
2023-05-21T19:50:49.185Z,98991.52
2023-05-21T19:55:51.188Z,98993.80
2023-05-21T20:00:55.803Z,98995.73
2023-05-21T20:05:58.682Z,98992.48
2023-05-21T20:11:00.877Z,98989.98
2023-05-21T20:16:02.613Z,98982.79
2023-05-21T20:21:06.398Z,98969.37
2023-05-21T20:26:08.388Z,98965.23
2023-05-21T20:31:10.196Z,98965.58
2023-05-21T20:36:15.292Z,98966.90
2023-05-21T20:41:17.321Z,98966.97
2023-05-21T20:46:19.944Z,98965.16
2023-05-21T20:51:21.842Z,98970.30
2023-05-21T20:56:39.884Z,98970.95
2023-05-21T21:01:43.643Z,98970.34
2023-05-21T21:06:47.277Z,98971.58
2023-05-21T21:11:50.740Z,98971.05
2023-05-21T21:16:54.350Z,98966.95
2023-05-21T21:21:56.246Z,98969.94
2023-05-21T21:26:58.023Z,98977.77
2023-05-21T21:31:59.890Z,98978.67
2023-05-21T21:37:01.669Z,98984.96
2023-05-21T21:42:04.309Z,98983.28
2023-05-21T21:47:09.855Z,98982.12
2023-05-21T21:52:14.751Z,98983.02
2023-05-21T21:57:16.535Z,98982.89
2023-05-21T22:02:18.525Z,98978.23
2023-05-21T22:07:20.799Z,98978.23
2023-05-21T22:12:22.691Z,98972.55
2023-05-21T22:17:24.496Z,98973.41
2023-05-21T22:22:26.747Z,98966.02
2023-05-21T22:27:28.687Z,98964.96
2023-05-21T22:32:30.778Z,98965.31
2023-05-21T22:37:32.586Z,98970.33
2023-05-21T22:42:35.151Z,98973.60
2023-05-21T22:47:39.734Z,98971.35
2023-05-21T22:52:41.929Z,98970.48
2023-05-21T22:57:44.309Z,98972.35
2023-05-21T23:02:47.505Z,98974.21
2023-05-21T23:07:50.036Z,98969.89
2023-05-21T23:12:54.192Z,98971.59
2023-05-21T23:17:56.920Z,98969.49
2023-05-21T23:22:58.911Z,98971.19
2023-05-21T23:28:00.673Z,98977.85
2023-05-21T23:33:02.632Z,98975.23
2023-05-21T23:38:05.219Z,98974.30
2023-05-21T23:43:18.131Z,98972.88
2023-05-21T23:48:23.344Z,98972.33
2023-05-21T23:53:25.886Z,98964.71
2023-05-21T23:58:27.625Z,98960.56
